createdAt,value
2017-05-21T00:00:53.800Z,30.24
2017-05-21T00:02:04.036Z,30.52
2017-05-21T00:03:14.088Z,30.24
2017-05-21T00:04:24.378Z,30.43
2017-05-21T00:05:34.713Z,30.43
2017-05-21T00:06:44.698Z,30.52
2017-05-21T00:07:55.233Z,30.24
2017-05-21T00:09:05.516Z,30.24
2017-05-21T00:10:15.803Z,30.04
2017-05-21T00:11:26.079Z,30.52
2017-05-21T00:12:36.421Z,30.62
2017-05-21T00:13:46.966Z,30.62
2017-05-21T00:14:57.242Z,30.43
2017-05-21T00:16:07.522Z,30.62
2017-05-21T00:17:17.807Z,30.52
2017-05-21T00:18:28.100Z,30.62
2017-05-21T00:19:38.684Z,30.62
2017-05-21T00:20:49.070Z,30.43
2017-05-21T00:21:59.113Z,30.72
2017-05-21T00:23:09.396Z,30.52
2017-05-21T00:24:19.981Z,30.62
2017-05-21T00:25:30.534Z,30.62
2017-05-21T00:26:40.810Z,30.52
2017-05-21T00:27:50.798Z,30.52
2017-05-21T00:29:01.073Z,30.62
2017-05-21T00:30:11.051Z,30.82
2017-05-21T00:31:20.955Z,30.62
2017-05-21T00:32:30.926Z,30.72
2017-05-21T00:33:41.209Z,30.72
2017-05-21T00:34:51.185Z,30.91
2017-05-21T00:36:01.469Z,30.91
2017-05-21T00:37:11.701Z,30.82
2017-05-21T00:38:21.977Z,30.72
2017-05-21T00:39:32.260Z,30.82
2017-05-21T00:40:42.246Z,30.82
2017-05-21T00:41:52.520Z,30.72
2017-05-21T00:43:03.051Z,30.91
2017-05-21T00:44:13.330Z,30.91
2017-05-21T00:45:23.096Z,30.91
2017-05-21T00:46:33.074Z,30.91
2017-05-21T00:47:43.043Z,30.91
2017-05-21T00:48:53.631Z,30.62
2017-05-21T00:50:03.916Z,30.72
2017-05-21T00:51:14.194Z,31.01
2017-05-21T00:52:24.164Z,30.72
2017-05-21T00:53:34.133Z,30.82
2017-05-21T00:54:44.362Z,30.72
2017-05-21T00:55:54.329Z,30.72
2017-05-21T00:57:04.617Z,31.01
2017-05-21T00:58:14.895Z,30.82
2017-05-21T00:59:25.232Z,30.91
2017-05-21T01:00:35.461Z,31.01
2017-05-21T01:01:45.736Z,31.01
2017-05-21T01:02:55.696Z,30.9
2017-05-21T01:04:05.669Z,31.01
2017-05-21T01:05:15.948Z,30.91
2017-05-21T01:06:26.476Z,31.1
2017-05-21T01:07:36.915Z,30.91
2017-05-21T01:08:46.892Z,30.91
2017-05-21T01:09:56.560Z,31.01
2017-05-21T01:11:06.840Z,31.1
2017-05-21T01:12:17.361Z,31.01
2017-05-21T01:13:27.636Z,30.91
2017-05-21T01:14:37.609Z,31.1
2017-05-21T01:15:47.897Z,30.91
2017-05-21T01:16:58.171Z,30.91
2017-05-21T01:18:08.710Z,30.91
2017-05-21T01:19:18.986Z,30.91
2017-05-21T01:20:29.275Z,30.99
2017-05-21T01:21:39.560Z,31.1
2017-05-21T01:22:49.857Z,30.9
2017-05-21T01:24:00.382Z,30.9
2017-05-21T01:25:10.655Z,30.91
2017-05-21T01:26:21.043Z,30.9
2017-05-21T01:27:31.319Z,30.99
2017-05-21T01:28:41.298Z,30.91
2017-05-21T01:29:51.829Z,31.18
2017-05-21T01:31:02.127Z,31.18
2017-05-21T01:32:12.412Z,31.18
2017-05-21T01:33:22.690Z,30.9
2017-05-21T01:34:32.666Z,31.01
2017-05-21T01:35:43.197Z,30.9
2017-05-21T01:36:53.472Z,31.1
2017-05-21T01:38:03.758Z,31.18
2017-05-21T01:39:14.041Z,31.18
2017-05-21T01:40:24.037Z,31.2
2017-05-21T01:41:34.572Z,30.99
2017-05-21T01:42:44.539Z,31.2
2017-05-21T01:43:54.828Z,31.09
2017-05-21T01:45:05.356Z,31.18
2017-05-21T01:46:15.643Z,31.2
2017-05-21T01:47:25.870Z,31.09
2017-05-21T01:48:35.835Z,31.18
2017-05-21T01:49:45.810Z,31.18
2017-05-21T01:50:56.096Z,31.28
2017-05-21T01:52:06.384Z,30.99
2017-05-21T01:53:16.607Z,31.2
2017-05-21T01:54:26.888Z,31.18
2017-05-21T01:55:37.168Z,31.2
2017-05-21T01:56:47.447Z,31.18
2017-05-21T01:57:57.736Z,31.18
2017-05-21T01:59:08.268Z,31.18
2017-05-21T02:00:18.552Z,31.09
2017-05-21T02:01:28.839Z,31.2
2017-05-21T02:02:38.812Z,31.18
2017-05-21T02:03:48.791Z,30.99
2017-05-21T02:04:59.327Z,31.09
2017-05-21T02:06:09.608Z,31.01
2017-05-21T02:07:19.883Z,31.2
2017-05-21T02:08:30.167Z,31.18
2017-05-21T02:09:40.451Z,31.09
2017-05-21T02:10:50.664Z,31.18
2017-05-21T02:12:00.942Z,31.28
2017-05-21T02:13:10.594Z,31.09
2017-05-21T02:14:20.898Z,31.18
2017-05-21T02:15:31.179Z,31.18
2017-05-21T02:16:41.399Z,31.09
2017-05-21T02:17:51.676Z,31.09
2017-05-21T02:19:01.338Z,31.09
2017-05-21T02:20:10.688Z,31.09
2017-05-21T02:21:20.661Z,31.09
2017-05-21T02:22:30.883Z,31.09
2017-05-21T02:23:40.534Z,30.99
2017-05-21T02:24:50.830Z,30.9
2017-05-21T02:26:01.117Z,31.18
2017-05-21T02:27:11.395Z,31.09
2017-05-21T02:28:21.919Z,31.18
2017-05-21T02:29:32.505Z,30.99
2017-05-21T02:30:42.791Z,31.09
2017-05-21T02:31:52.767Z,31.09
2017-05-21T02:33:03.050Z,31.18
2017-05-21T02:34:13.272Z,30.99
2017-05-21T02:35:23.559Z,31.09
2017-05-21T02:36:33.536Z,31.18
2017-05-21T02:37:43.813Z,31.18
2017-05-21T02:38:53.774Z,31.09
2017-05-21T02:40:04.302Z,31.09
2017-05-21T02:41:14.581Z,31.09
2017-05-21T02:42:24.854Z,30.99
2017-05-21T02:43:34.828Z,31.09
2017-05-21T02:44:45.106Z,31.09
2017-05-21T02:45:55.328Z,31.09
2017-05-21T02:47:04.974Z,31.09
2017-05-21T02:48:15.259Z,31.09
2017-05-21T02:49:25.540Z,31.09
2017-05-21T02:50:35.512Z,31.09
2017-05-21T02:51:46.043Z,31.09
2017-05-21T02:52:56.330Z,31.18
2017-05-21T02:54:06.615Z,31.18
2017-05-21T02:55:16.906Z,31.09
2017-05-21T02:56:27.191Z,30.99
2017-05-21T02:57:37.724Z,31.09
2017-05-21T02:58:48.011Z,31.18
2017-05-21T02:59:57.994Z,31.09
2017-05-21T03:01:07.965Z,31.09
2017-05-21T03:02:18.249Z,31.18
2017-05-21T03:03:28.780Z,31.09
2017-05-21T03:04:38.754Z,31.09
2017-05-21T03:05:48.730Z,31.18
2017-05-21T03:06:58.708Z,31.18
2017-05-21T03:08:08.680Z,30.9
2017-05-21T03:09:19.211Z,30.9
2017-05-21T03:10:29.197Z,31.09
2017-05-21T03:11:39.170Z,31.18
2017-05-21T03:12:49.473Z,31.18
2017-05-21T03:13:59.760Z,30.9
2017-05-21T03:15:10.282Z,31.09
2017-05-21T03:16:20.564Z,30.9
2017-05-21T03:17:30.849Z,30.99
2017-05-21T03:18:41.136Z,30.99
2017-05-21T03:19:51.418Z,30.9
2017-05-21T03:21:02.013Z,31.09
2017-05-21T03:22:11.680Z,31.09
2017-05-21T03:23:21.642Z,30.9
2017-05-21T03:24:31.993Z,31.09
2017-05-21T03:25:41.963Z,30.9
2017-05-21T03:26:51.872Z,30.99
2017-05-21T03:28:02.148Z,30.99
2017-05-21T03:29:12.432Z,30.9
2017-05-21T03:30:22.705Z,30.99
2017-05-21T03:31:32.369Z,30.8
2017-05-21T03:32:42.906Z,30.9
2017-05-21T03:33:52.880Z,30.8
2017-05-21T03:35:03.171Z,30.99
2017-05-21T03:36:13.455Z,30.9
2017-05-21T03:37:23.736Z,30.9
2017-05-21T03:38:34.267Z,30.9
2017-05-21T03:39:44.552Z,30.9
2017-05-21T03:40:54.532Z,30.8
2017-05-21T03:42:04.501Z,30.99
2017-05-21T03:43:14.788Z,30.9
2017-05-21T03:44:25.018Z,30.9
2017-05-21T03:45:35.303Z,30.99
2017-05-21T03:46:45.278Z,30.99
2017-05-21T03:47:55.567Z,30.99
2017-05-21T03:49:05.842Z,30.99
2017-05-21T03:50:16.383Z,30.99
2017-05-21T03:51:26.659Z,30.99
2017-05-21T03:52:36.639Z,30.9
2017-05-21T03:53:46.606Z,31.09
2017-05-21T03:54:56.889Z,31.09
2017-05-21T03:56:07.106Z,30.99
2017-05-21T03:57:17.390Z,30.9
2017-05-21T03:58:27.679Z,31.09
2017-05-21T03:59:37.970Z,30.99
2017-05-21T04:00:47.957Z,31.18
2017-05-21T04:01:58.221Z,31.09
2017-05-21T04:03:08.504Z,30.99
2017-05-21T04:04:18.793Z,31.09
2017-05-21T04:05:29.076Z,31.09
2017-05-21T04:06:39.041Z,31.09
2017-05-21T04:07:49.568Z,30.99
2017-05-21T04:08:59.538Z,31.09
2017-05-21T04:10:09.818Z,31.18
2017-05-21T04:11:20.097Z,30.99
2017-05-21T04:12:30.379Z,30.99
2017-05-21T04:13:40.908Z,31.18
2017-05-21T04:14:51.194Z,30.99
2017-05-21T04:16:01.170Z,30.99
2017-05-21T04:17:11.453Z,31.09
2017-05-21T04:18:21.421Z,30.9
2017-05-21T04:19:31.953Z,31.18
2017-05-21T04:20:41.918Z,30.99
2017-05-21T04:21:52.202Z,30.9
2017-05-21T04:23:02.477Z,30.9
2017-05-21T04:24:12.764Z,31.09
2017-05-21T04:25:23.300Z,30.99
2017-05-21T04:26:33.580Z,31.09
2017-05-21T04:27:43.856Z,31.09
2017-05-21T04:28:53.836Z,31.09
2017-05-21T04:30:03.830Z,30.9
2017-05-21T04:31:14.373Z,31.09
2017-05-21T04:32:24.645Z,31.09
2017-05-21T04:33:34.933Z,30.9
2017-05-21T04:34:45.243Z,30.99
2017-05-21T04:35:55.214Z,30.99
2017-05-21T04:37:05.750Z,30.9
2017-05-21T04:38:15.718Z,30.99
2017-05-21T04:39:26.016Z,30.8
2017-05-21T04:40:36.355Z,30.8
2017-05-21T04:41:46.638Z,30.9
2017-05-21T04:42:56.866Z,30.7
2017-05-21T04:44:07.145Z,30.8
2017-05-21T04:45:17.418Z,30.7
2017-05-21T04:46:27.707Z,30.8
2017-05-21T04:47:37.365Z,30.9
2017-05-21T04:48:47.599Z,30.61
2017-05-21T04:49:57.879Z,30.7
2017-05-21T04:51:07.851Z,30.62
2017-05-21T04:52:17.883Z,30.7
2017-05-21T04:53:27.855Z,30.61
2017-05-21T04:54:38.395Z,30.41
2017-05-21T04:55:48.368Z,30.52
2017-05-21T04:56:58.644Z,30.62
2017-05-21T04:58:08.935Z,30.62
2017-05-21T04:59:19.225Z,30.62
2017-05-21T05:00:29.442Z,30.24
2017-05-21T05:01:39.408Z,30.33
2017-05-21T05:02:49.700Z,30.24
2017-05-21T05:03:59.674Z,30.43
2017-05-21T05:05:09.961Z,30.14
2017-05-21T05:06:19.867Z,30.24
2017-05-21T05:07:30.152Z,30.24
2017-05-21T05:08:40.129Z,30.24
2017-05-21T05:09:50.410Z,30.24
2017-05-21T05:11:00.691Z,30.33
2017-05-21T05:12:11.225Z,30.14
2017-05-21T05:13:21.500Z,30.04
2017-05-21T05:14:31.779Z,29.94
2017-05-21T05:15:41.741Z,29.94
2017-05-21T05:16:51.705Z,30.04
2017-05-21T05:18:01.929Z,29.85
2017-05-21T05:19:11.904Z,29.94
2017-05-21T05:20:22.185Z,29.85
2017-05-21T05:21:32.481Z,30.04
2017-05-21T05:22:42.756Z,29.94
2017-05-21T05:23:52.980Z,30.04
2017-05-21T05:25:03.268Z,29.85
2017-05-21T05:26:12.929Z,29.75
2017-05-21T05:27:23.222Z,29.66
2017-05-21T05:28:33.501Z,29.94
2017-05-21T05:29:44.034Z,29.75
2017-05-21T05:30:54.009Z,29.85
2017-05-21T05:32:03.993Z,29.94
2017-05-21T05:33:14.277Z,29.66
2017-05-21T05:34:24.564Z,29.75
2017-05-21T05:35:35.097Z,30.04
2017-05-21T05:36:45.385Z,29.66
2017-05-21T05:37:55.667Z,29.85
2017-05-21T05:39:05.961Z,29.56
2017-05-21T05:40:15.942Z,29.47
2017-05-21T05:41:26.469Z,29.47
2017-05-21T05:42:36.757Z,29.86
2017-05-21T05:43:47.049Z,29.77
2017-05-21T05:44:57.328Z,29.47
2017-05-21T05:46:07.614Z,29.57
2017-05-21T05:47:18.142Z,29.38
2017-05-21T05:48:28.433Z,29.28
2017-05-21T05:49:38.640Z,29.28
2017-05-21T05:50:48.947Z,29.28
2017-05-21T05:51:59.243Z,29.38
2017-05-21T05:53:09.793Z,29.66
2017-05-21T05:54:20.072Z,29.67
2017-05-21T05:55:30.362Z,29.47
2017-05-21T05:56:40.673Z,29.67
2017-05-21T05:57:50.964Z,29.28
2017-05-21T05:59:01.496Z,29.19
2017-05-21T06:00:11.172Z,29.19
2017-05-21T06:01:21.447Z,29.28
2017-05-21T06:02:31.734Z,29.28
2017-05-21T06:03:42.035Z,29.28
2017-05-21T06:04:52.628Z,29.19
2017-05-21T06:06:02.593Z,28.99
2017-05-21T06:07:12.264Z,29.19
2017-05-21T06:08:22.252Z,28.99
2017-05-21T06:09:32.230Z,29.09
2017-05-21T06:10:42.785Z,29.09
2017-05-21T06:11:53.068Z,28.89
2017-05-21T06:13:03.365Z,28.89
2017-05-21T06:14:13.660Z,28.99
2017-05-21T06:15:23.953Z,28.99
2017-05-21T06:16:34.484Z,28.89
2017-05-21T06:17:44.457Z,28.99
2017-05-21T06:18:54.742Z,28.89
2017-05-21T06:20:04.721Z,28.99
2017-05-21T06:21:14.691Z,28.8
2017-05-21T06:22:25.224Z,28.91
2017-05-21T06:23:35.211Z,28.8
2017-05-21T06:24:45.201Z,28.8
2017-05-21T06:25:55.175Z,28.89
2017-05-21T06:27:05.454Z,28.91
2017-05-21T06:28:15.689Z,28.7
2017-05-21T06:29:25.976Z,28.8
2017-05-21T06:30:36.261Z,28.72
2017-05-21T06:31:46.615Z,28.7
2017-05-21T06:32:56.285Z,28.61
2017-05-21T06:34:06.835Z,28.72
2017-05-21T06:35:17.113Z,28.61
2017-05-21T06:36:27.080Z,28.8
2017-05-21T06:37:37.055Z,28.62
2017-05-21T06:38:47.030Z,28.62
2017-05-21T06:39:57.256Z,28.62
2017-05-21T06:41:07.231Z,28.61
2017-05-21T06:42:17.208Z,28.14
2017-05-21T06:43:27.604Z,28.03
2017-05-21T06:44:37.644Z,28.04
2017-05-21T06:45:47.873Z,28.13
2017-05-21T06:46:57.844Z,28.22
2017-05-21T06:48:08.145Z,28.23
2017-05-21T06:49:18.447Z,28.31
2017-05-21T06:50:28.741Z,28.31
2017-05-21T06:51:39.281Z,28.43
2017-05-21T06:52:49.565Z,28.23
2017-05-21T06:53:59.562Z,28.31
2017-05-21T06:55:09.864Z,28.31
2017-05-21T06:56:19.528Z,28.33
2017-05-21T06:57:30.112Z,28.31
2017-05-21T06:58:40.401Z,28.43
2017-05-21T06:59:50.687Z,28.31
2017-05-21T07:01:00.652Z,28.22
2017-05-21T07:02:10.956Z,28.22
2017-05-21T07:03:21.194Z,28.43
2017-05-21T07:04:31.473Z,28.23
2017-05-21T07:05:41.758Z,28.33
2017-05-21T07:06:51.727Z,28.04
2017-05-21T07:08:02.020Z,28.14
2017-05-21T07:09:12.247Z,28.23
2017-05-21T07:10:22.231Z,28.23
2017-05-21T07:11:32.517Z,28.23
2017-05-21T07:12:42.492Z,27.94
2017-05-21T07:13:52.780Z,27.94
2017-05-21T07:15:03.335Z,28.04
2017-05-21T07:16:13.642Z,27.94
2017-05-21T07:17:23.927Z,28.13
2017-05-21T07:18:34.276Z,28.04
2017-05-21T07:19:44.270Z,28.03
2017-05-21T07:20:54.801Z,28.14
2017-05-21T07:22:04.785Z,27.75
2017-05-21T07:23:15.068Z,27.85
2017-05-21T07:24:25.048Z,27.64
2017-05-21T07:25:35.340Z,27.85
2017-05-21T07:26:45.868Z,27.85
2017-05-21T07:27:55.836Z,27.85
2017-05-21T07:29:06.128Z,27.45
2017-05-21T07:30:16.420Z,27.66
2017-05-21T07:31:26.702Z,27.36
2017-05-21T07:32:36.936Z,27.56
2017-05-21T07:33:47.228Z,27.46
2017-05-21T07:34:56.902Z,27.66
2017-05-21T07:36:07.203Z,27.66
2017-05-21T07:37:17.183Z,27.73
2017-05-21T07:38:27.721Z,27.66
2017-05-21T07:39:38.004Z,27.35
2017-05-21T07:40:48.292Z,27.46
2017-05-21T07:41:58.575Z,27.36
2017-05-21T07:43:08.878Z,27.45
2017-05-21T07:44:19.431Z,27.46
2017-05-21T07:45:29.726Z,27.56
2017-05-21T07:46:39.703Z,27.26
2017-05-21T07:47:49.376Z,27.26
2017-05-21T07:48:59.688Z,27.36
2017-05-21T07:50:09.911Z,27.26
2017-05-21T07:51:20.184Z,27.26
2017-05-21T07:52:30.470Z,27.17
2017-05-21T07:53:40.450Z,27.36
2017-05-21T07:54:50.734Z,27.26
2017-05-21T07:56:00.972Z,27.26
2017-05-21T07:57:11.253Z,27.36
2017-05-21T07:58:21.548Z,27.46
2017-05-21T07:59:31.831Z,27.36
2017-05-21T08:00:42.111Z,27.46
2017-05-21T08:01:52.344Z,27.17
2017-05-21T08:03:02.621Z,27.17
2017-05-21T08:04:12.911Z,27.46
2017-05-21T08:05:23.205Z,27.36
2017-05-21T08:06:33.482Z,27.36
2017-05-21T08:07:44.018Z,27.46
2017-05-21T08:08:54.303Z,27.26
2017-05-21T08:10:04.584Z,27.36
2017-05-21T08:11:14.569Z,27.08
2017-05-21T08:12:24.547Z,27.36
2017-05-21T08:13:34.768Z,27.36
2017-05-21T08:14:44.756Z,27.17
2017-05-21T08:15:54.731Z,27.36
2017-05-21T08:17:04.714Z,27.26
2017-05-21T08:18:15.014Z,26.88
2017-05-21T08:19:25.592Z,26.88
2017-05-21T08:20:35.576Z,27.17
2017-05-21T08:21:45.614Z,26.88
2017-05-21T08:22:55.896Z,27.26
2017-05-21T08:24:05.881Z,26.88
2017-05-21T08:25:16.103Z,27.08
2017-05-21T08:26:26.387Z,26.98
2017-05-21T08:27:36.680Z,26.98
2017-05-21T08:28:46.984Z,26.88
2017-05-21T08:29:57.270Z,26.98
2017-05-21T08:31:07.822Z,26.78
2017-05-21T08:32:18.119Z,26.68
2017-05-21T08:33:27.513Z,26.78
2017-05-21T08:34:37.825Z,26.97
2017-05-21T08:35:48.102Z,26.68
2017-05-21T08:36:58.641Z,26.59
2017-05-21T08:38:08.937Z,26.78
2017-05-21T08:39:18.912Z,26.59
2017-05-21T08:40:28.899Z,26.59
2017-05-21T08:41:38.561Z,26.78
2017-05-21T08:42:49.103Z,26.88
2017-05-21T08:43:59.085Z,26.88
2017-05-21T08:45:09.389Z,26.88
2017-05-21T08:46:19.673Z,26.78
2017-05-21T08:47:29.968Z,26.78
2017-05-21T08:48:40.515Z,26.78
2017-05-21T08:49:50.810Z,26.68
2017-05-21T08:51:00.800Z,26.67
2017-05-21T08:52:11.099Z,26.59
2017-05-21T08:53:21.071Z,26.59
2017-05-21T08:54:31.299Z,26.68
2017-05-21T08:55:41.592Z,26.59
2017-05-21T08:56:51.892Z,26.68
2017-05-21T08:58:02.176Z,26.78
2017-05-21T08:59:12.471Z,26.59
2017-05-21T09:00:23.018Z,26.68
2017-05-21T09:01:33.293Z,26.68
2017-05-21T09:02:43.590Z,26.59
2017-05-21T09:03:53.884Z,26.68
2017-05-21T09:05:04.184Z,26.59
2017-05-21T09:06:14.720Z,26.59
2017-05-21T09:07:25.002Z,26.68
2017-05-21T09:08:34.971Z,26.68
2017-05-21T09:09:44.954Z,26.59
2017-05-21T09:10:55.239Z,26.5
2017-05-21T09:12:05.781Z,26.4
2017-05-21T09:13:15.443Z,26.5
2017-05-21T09:14:25.439Z,26.59
2017-05-21T09:15:35.739Z,26.5
2017-05-21T09:16:46.038Z,26.4
2017-05-21T09:17:56.570Z,26.59
2017-05-21T09:19:06.870Z,26.5
2017-05-21T09:20:17.163Z,26.78
2017-05-21T09:21:27.446Z,26.4
2017-05-21T09:22:37.741Z,26.3
2017-05-21T09:23:48.295Z,26.59
2017-05-21T09:24:58.587Z,26.5
2017-05-21T09:26:08.255Z,26.4
2017-05-21T09:27:18.538Z,26.3
2017-05-21T09:28:28.838Z,26.4
2017-05-21T09:29:39.071Z,26.39
2017-05-21T09:30:49.367Z,26.5
2017-05-21T09:31:59.648Z,26.4
2017-05-21T09:33:09.940Z,26.59
2017-05-21T09:34:20.238Z,26.68
2017-05-21T09:35:30.783Z,26.4
2017-05-21T09:36:41.069Z,26.77
2017-05-21T09:37:51.033Z,26.4
2017-05-21T09:39:01.319Z,26.5
2017-05-21T09:40:11.606Z,26.4
2017-05-21T09:41:21.829Z,26.3
2017-05-21T09:42:32.120Z,26.5
2017-05-21T09:43:42.102Z,26.68
2017-05-21T09:44:52.081Z,26.5
2017-05-21T09:46:02.062Z,26.5
2017-05-21T09:47:12.292Z,26.29
2017-05-21T09:48:22.577Z,26.29
2017-05-21T09:49:32.859Z,26.5
2017-05-21T09:50:43.143Z,26.5
2017-05-21T09:51:53.419Z,26.29
2017-05-21T09:53:03.331Z,26.09
2017-05-21T09:54:13.640Z,26.29
2017-05-21T09:55:23.606Z,26.19
2017-05-21T09:56:33.892Z,26.3
2017-05-21T09:57:44.186Z,26.19
2017-05-21T09:58:54.737Z,26.29
2017-05-21T10:00:04.706Z,26.19
2017-05-21T10:01:14.681Z,26.09
2017-05-21T10:02:24.649Z,26.19
2017-05-21T10:03:34.957Z,26.29
2017-05-21T10:04:45.494Z,26.09
2017-05-21T10:05:55.469Z,26.39
2017-05-21T10:07:05.742Z,26.3
2017-05-21T10:08:15.734Z,26.4
2017-05-21T10:09:26.058Z,26.1
2017-05-21T10:10:36.618Z,26.29
2017-05-21T10:11:46.901Z,26.2
2017-05-21T10:12:56.609Z,26.29
2017-05-21T10:14:06.590Z,26.19
2017-05-21T10:15:16.555Z,26.2
2017-05-21T10:16:27.088Z,26.3
2017-05-21T10:17:36.768Z,26.2
2017-05-21T10:18:47.058Z,26.1
2017-05-21T10:19:57.040Z,25.82
2017-05-21T10:21:07.326Z,25.72
2017-05-21T10:22:17.865Z,25.72
2017-05-21T10:23:27.854Z,25.82
2017-05-21T10:24:38.153Z,25.82
2017-05-21T10:25:48.428Z,25.9
2017-05-21T10:26:58.715Z,26.01
2017-05-21T10:28:08.662Z,26.01
2017-05-21T10:29:18.960Z,26.01
2017-05-21T10:30:29.000Z,25.9
2017-05-21T10:31:39.297Z,25.99
2017-05-21T10:32:49.598Z,26.01
2017-05-21T10:34:00.135Z,26.01
2017-05-21T10:35:10.437Z,26.01
2017-05-21T10:36:20.426Z,26.1
2017-05-21T10:37:30.104Z,26.01
2017-05-21T10:38:40.088Z,26.1
2017-05-21T10:39:50.400Z,26.1
2017-05-21T10:41:00.694Z,26.1
2017-05-21T10:42:11.001Z,25.72
2017-05-21T10:43:21.300Z,26.01
2017-05-21T10:44:31.607Z,25.82
2017-05-21T10:45:42.152Z,26.09
2017-05-21T10:46:52.437Z,25.92
2017-05-21T10:48:02.717Z,25.82
2017-05-21T10:49:13.004Z,25.52
2017-05-21T10:50:22.987Z,25.72
2017-05-21T10:51:33.522Z,25.62
2017-05-21T10:52:43.501Z,25.71
2017-05-21T10:53:53.476Z,25.72
2017-05-21T10:55:03.166Z,25.82
2017-05-21T10:56:13.454Z,25.72
2017-05-21T10:57:23.676Z,25.72
2017-05-21T10:58:33.643Z,25.82
2017-05-21T10:59:43.622Z,25.82
2017-05-21T11:00:53.966Z,25.72
2017-05-21T11:02:04.249Z,25.71
2017-05-21T11:03:14.787Z,25.72
2017-05-21T11:04:25.066Z,25.34
2017-05-21T11:05:35.379Z,25.34
2017-05-21T11:06:45.663Z,25.51
2017-05-21T11:07:55.949Z,25.52
2017-05-21T11:09:06.491Z,25.51
2017-05-21T11:10:16.480Z,25.51
2017-05-21T11:11:26.452Z,25.43
2017-05-21T11:12:36.738Z,25.04
2017-05-21T11:13:47.023Z,25.52
2017-05-21T11:14:57.575Z,25.43
2017-05-21T11:16:07.885Z,24.95
2017-05-21T11:17:18.191Z,25.04
2017-05-21T11:18:28.487Z,25.04
2017-05-21T11:19:38.770Z,25.24
2017-05-21T11:20:48.991Z,25.23
2017-05-21T11:21:59.281Z,25.14
2017-05-21T11:23:09.563Z,25.24
2017-05-21T11:24:19.853Z,25.34
2017-05-21T11:25:30.150Z,25.23
2017-05-21T11:26:40.699Z,24.93
2017-05-21T11:27:50.987Z,25.62
2017-05-21T11:29:00.978Z,25.14
2017-05-21T11:30:10.968Z,25.03
2017-05-21T11:31:21.251Z,25.24
2017-05-21T11:32:31.471Z,25.24
2017-05-21T11:33:41.448Z,25.24
2017-05-21T11:34:51.417Z,24.93
2017-05-21T11:36:01.390Z,24.95
2017-05-21T11:37:11.678Z,25.14
2017-05-21T11:38:22.218Z,24.95
2017-05-21T11:39:32.521Z,25.04
2017-05-21T11:40:42.906Z,24.95
2017-05-21T11:41:52.565Z,25.14
2017-05-21T11:43:02.529Z,25.04
2017-05-21T11:44:12.765Z,24.95
2017-05-21T11:45:23.064Z,25.04
2017-05-21T11:46:33.050Z,24.95
2017-05-21T11:47:43.030Z,25.04
2017-05-21T11:48:53.322Z,24.93
2017-05-21T11:50:03.868Z,24.85
2017-05-21T11:51:14.153Z,24.85
2017-05-21T11:52:24.436Z,24.76
2017-05-21T11:53:34.732Z,24.85
2017-05-21T11:54:45.089Z,24.95
2017-05-21T11:55:55.626Z,24.85
2017-05-21T11:57:05.913Z,24.66
2017-05-21T11:58:15.882Z,24.95
2017-05-21T11:59:25.889Z,24.85
2017-05-21T12:00:35.853Z,24.56
2017-05-21T12:01:46.074Z,24.56
2017-05-21T12:02:55.753Z,24.76
2017-05-21T12:04:05.724Z,24.46
2017-05-21T12:05:15.710Z,24.46
2017-05-21T12:06:26.079Z,24.26
2017-05-21T12:07:36.616Z,24.27
2017-05-21T12:08:46.601Z,24.45
2017-05-21T12:09:56.905Z,24.55
2017-05-21T12:11:06.885Z,24.46
2017-05-21T12:12:17.190Z,24.46
2017-05-21T12:13:27.716Z,24.37
2017-05-21T12:14:38.004Z,24.37
2017-05-21T12:15:47.683Z,24.56
2017-05-21T12:16:57.971Z,24.46
2017-05-21T12:18:07.958Z,24.27
2017-05-21T12:19:18.509Z,24.37
2017-05-21T12:20:28.794Z,24.56
2017-05-21T12:21:39.080Z,24.27
2017-05-21T12:22:49.370Z,24.46
2017-05-21T12:23:59.667Z,24.46
2017-05-21T12:25:10.201Z,24.46
2017-05-21T12:26:20.514Z,23.98
2017-05-21T12:27:30.246Z,23.98
2017-05-21T12:28:40.220Z,24.08
2017-05-21T12:29:50.516Z,24.07
2017-05-21T12:31:01.060Z,24.27
2017-05-21T12:32:11.355Z,24.16
2017-05-21T12:33:21.326Z,24.17
2017-05-21T12:34:31.630Z,24.07
2017-05-21T12:35:41.932Z,24.27
2017-05-21T12:36:52.160Z,24.37
2017-05-21T12:38:01.822Z,24.17
2017-05-21T12:39:12.122Z,24.56
2017-05-21T12:40:22.430Z,24.17
2017-05-21T12:41:32.749Z,24.56
2017-05-21T12:42:42.976Z,24.27
2017-05-21T12:43:52.957Z,24.37
2017-05-21T12:45:03.246Z,24.76
2017-05-21T12:46:13.545Z,24.26
2017-05-21T12:47:23.527Z,24.46
2017-05-21T12:48:34.071Z,23.98
2017-05-21T12:49:44.365Z,23.98
2017-05-21T12:50:54.047Z,24.46
2017-05-21T12:52:04.338Z,24.46
2017-05-21T12:53:14.631Z,24.46
2017-05-21T12:54:25.178Z,24.07
2017-05-21T12:55:35.162Z,24.56
2017-05-21T12:56:45.445Z,24.17
2017-05-21T12:57:55.730Z,24.08
2017-05-21T12:59:06.023Z,24.17
2017-05-21T13:00:16.568Z,24.46
2017-05-21T13:01:26.554Z,24.46
2017-05-21T13:02:36.850Z,24.08
2017-05-21T13:03:47.148Z,24.37
2017-05-21T13:04:57.137Z,24.17
2017-05-21T13:06:07.683Z,24.27
2017-05-21T13:07:17.347Z,24.17
2017-05-21T13:08:27.650Z,24.27
2017-05-21T13:09:37.621Z,24.17
2017-05-21T13:10:47.318Z,24.46
2017-05-21T13:11:57.550Z,24.46
2017-05-21T13:13:07.851Z,24.17
2017-05-21T13:14:18.144Z,24.46
2017-05-21T13:15:28.127Z,24.46
2017-05-21T13:16:38.414Z,24.37
2017-05-21T13:17:48.948Z,24.37
2017-05-21T13:18:59.249Z,24.08
2017-05-21T13:20:09.556Z,24.08
2017-05-21T13:21:19.533Z,24.17
2017-05-21T13:22:29.822Z,24.37
2017-05-21T13:23:40.803Z,24.46
2017-05-21T13:24:51.080Z,24.56
2017-05-21T13:26:01.395Z,24.08
2017-05-21T13:27:10.430Z,24.17
2017-05-21T13:28:20.747Z,24.37
2017-05-21T13:29:30.976Z,24.17
2017-05-21T13:30:40.966Z,24.27
2017-05-21T13:31:51.291Z,24.08
2017-05-21T13:33:01.584Z,24.27
2017-05-21T13:34:11.874Z,23.98
2017-05-21T13:35:22.413Z,23.98
2017-05-21T13:36:32.701Z,23.79
2017-05-21T13:37:42.991Z,24.37
2017-05-21T13:38:53.285Z,23.98
2017-05-21T13:40:03.574Z,24.17
2017-05-21T13:41:14.127Z,24.08
2017-05-21T13:42:24.109Z,24.08
2017-05-21T13:43:34.082Z,24.17
2017-05-21T13:44:44.077Z,23.88
2017-05-21T13:45:54.363Z,23.98
2017-05-21T13:47:04.901Z,23.98
2017-05-21T13:48:14.869Z,23.98
2017-05-21T13:49:25.165Z,24.08
2017-05-21T13:50:35.147Z,23.79
2017-05-21T13:51:45.433Z,23.79
2017-05-21T13:52:55.657Z,23.79
2017-05-21T13:54:05.946Z,23.79
2017-05-21T13:55:15.628Z,23.79
2017-05-21T13:56:25.916Z,23.79
2017-05-21T13:57:35.913Z,23.79
2017-05-21T13:58:46.449Z,23.79
2017-05-21T13:59:56.431Z,23.69
2017-05-21T14:01:06.738Z,23.69
2017-05-21T14:02:16.717Z,23.5
2017-05-21T14:03:27.026Z,23.4
2017-05-21T14:04:37.563Z,23.59
2017-05-21T14:05:47.852Z,23.3
2017-05-21T14:06:58.141Z,23.3
2017-05-21T14:08:08.173Z,23.3
2017-05-21T14:09:18.456Z,23.4
2017-05-21T14:10:29.020Z,23.4
2017-05-21T14:11:38.984Z,23.5
2017-05-21T14:12:49.267Z,23.4
2017-05-21T14:13:58.937Z,23.4
2017-05-21T14:15:09.223Z,23.4
2017-05-21T14:16:19.773Z,23.11
2017-05-21T14:17:29.750Z,23.69
2017-05-21T14:18:40.055Z,23.59
2017-05-21T14:19:50.355Z,23.59
2017-05-21T14:21:00.331Z,23.01
2017-05-21T14:22:10.894Z,23.21
2017-05-21T14:23:20.871Z,23.11
2017-05-21T14:24:30.844Z,23.5
2017-05-21T14:25:41.122Z,23.11
2017-05-21T14:26:51.474Z,23.4
2017-05-21T14:28:01.713Z,23.59
2017-05-21T14:29:12.031Z,23.11
2017-05-21T14:30:22.334Z,23.11
2017-05-21T14:31:31.680Z,23.5
2017-05-21T14:32:41.991Z,23.11
2017-05-21T14:33:52.544Z,23.3
2017-05-21T14:35:02.830Z,23.5
2017-05-21T14:36:12.811Z,23.59
2017-05-21T14:37:22.817Z,23.5
2017-05-21T14:38:33.111Z,23.4
2017-05-21T14:39:43.339Z,23.4
2017-05-21T14:40:53.317Z,23.59
2017-05-21T14:42:03.623Z,23.59
2017-05-21T14:43:13.906Z,23.39
2017-05-21T14:44:23.565Z,23.21
2017-05-21T14:45:34.101Z,23.11
2017-05-21T14:46:44.399Z,23.01
2017-05-21T14:47:53.810Z,23.11
2017-05-21T14:49:03.806Z,23.59
2017-05-21T14:50:14.093Z,23.21
2017-05-21T14:51:24.624Z,23.21
2017-05-21T14:52:34.591Z,23.11
2017-05-21T14:53:44.579Z,23.21
2017-05-21T14:54:54.869Z,23.01
2017-05-21T14:56:05.157Z,23.11
2017-05-21T14:57:15.705Z,23.5
2017-05-21T14:58:25.696Z,23.59
2017-05-21T14:59:35.664Z,23.69
2017-05-21T15:00:45.339Z,23.59
2017-05-21T15:01:55.685Z,23.59
2017-05-21T15:03:06.229Z,23.11
2017-05-21T15:04:16.517Z,23.19
2017-05-21T15:05:26.494Z,23.21
2017-05-21T15:06:36.774Z,23.59
2017-05-21T15:07:47.060Z,23.11
2017-05-21T15:08:56.982Z,23.11